• Join FlightAware (Why Join?)
  • Login
  • US Flag 
07:26AM EST


 

Airport Tracker/Info


-or-


 

Live Flight TrackerFlight Track Log ✈ N550BF ✈ 26-Dec-2013 ✈ KDTN - KTKI

Flight Track Log - Related Links

Times and Time Zones

All times are in EST time to prevent confusion due to time zone crossing. See the N550BF flight status page for this flight to view local times or setup timezone preferences in your user account.

Time Position Orientation Groundspeed Altitude Reporting Facility
EST Latitude Longitude Course Direction KTS MPH feet Rate Location/Type
09:32PM 32.5336 -93.7561 240° Southwest 108 124 400  Level Fort Worth Center
09:32PM 32.5300 -93.7636 240° Southwest 112 129 700 1,200 Climbing Fort Worth Center
09:33PM 32.5281 -93.8008 266° West 131 151 1,900 1,140 Climbing Fort Worth Center
09:34PM 32.5350 -93.8192 294° West 127 146 2,400 960 Climbing Fort Worth Center
09:34PM 32.5389 -93.8469 279° West 144 166 2,900 1,140 Climbing Fort Worth Center
09:35PM 32.5467 -93.8689 293° West 144 166 3,600 1,260 Climbing Fort Worth Center
09:35PM 32.5522 -93.8928 285° West 149 171 4,200 1,140 Climbing Fort Worth Center
09:36PM 32.5592 -93.9144 291° West 145 167 4,800 1,200 Climbing Fort Worth Center
09:36PM 32.5608 -93.9367 275° West 147 169 5,400 1,200 Climbing Fort Worth Center
09:37PM 32.5672 -93.9606 288° West 144 166 6,100 1,080 Climbing Fort Worth Center
09:37PM 32.5722 -93.9875 282° West 145 167 6,500 360 Climbing Fort Worth Center
09:38PM 32.5797 -94.0136 289° West 155 178 6,500  Level Fort Worth Center
09:38PM 32.5878 -94.0408 289° West 183 211 6,500  Level Fort Worth Center
09:39PM 32.5961 -94.0689 289° West 176 203 6,500  Level Fort Worth Center
09:39PM 32.6014 -94.0967 283° West 182 209 6,500  Level Fort Worth Center
09:40PM 32.6100 -94.1256 289° West 178 205 6,500  Level Fort Worth Center
09:41PM 32.6247 -94.1869 286° West 179 206 6,500  Level Fort Worth Center
09:42PM 32.6381 -94.2425 286° West 177 204 6,500  Level Fort Worth Center
09:43PM 32.6519 -94.2986 286° West 177 204 6,500  Level Fort Worth Center
09:44PM 32.6653 -94.3597 285° West 179 206 6,500  Level Fort Worth Center
09:45PM 32.6794 -94.4150 287° West 176 203 6,500  Level Fort Worth Center
09:46PM 32.6925 -94.4711 285° West 177 204 6,500  Level Fort Worth Center
09:47PM 32.7069 -94.5317 286° West 177 204 6,500  Level Fort Worth Center
09:48PM 32.7203 -94.5886 286° West 179 206 6,500  Level Fort Worth Center
09:49PM 32.7344 -94.6453 287° West 180 207 6,500  Level Fort Worth Center
09:50PM 32.7450 -94.6969 284° West 181 208 6,500  Level Fort Worth Center
09:51PM 32.7578 -94.7533 285° West 179 206 6,500  Level Fort Worth Center
09:52PM 32.7761 -94.8242 287° West 185 213 6,500  Level Fort Worth Center
09:53PM 32.7894 -94.8831 285° West 186 214 6,500  Level Fort Worth Center
09:54PM 32.8025 -94.9386 286° West 180 207 6,500  Level Fort Worth Center
09:55PM 32.8161 -94.9958 286° West 179 206 6,500  Level Fort Worth Center
09:56PM 32.8289 -95.0522 285° West 178 205 6,500  Level Fort Worth Center
09:57PM 32.8419 -95.1097 285° West 180 207 6,500  Level Fort Worth Center
09:58PM 32.8558 -95.1672 286° West 180 207 6,500  Level Fort Worth Center
09:59PM 32.8689 -95.2236 285° West 179 206 6,500  Level Fort Worth Center
10:00PM 32.8844 -95.2867 286° West 178 205 6,500  Level Fort Worth Center
10:01PM 32.8969 -95.3439 285° West 181 208 6,500  Level Fort Worth Center
10:02PM 32.9069 -95.4006 282° West 176 203 6,500  Level Fort Worth Center
10:03PM 32.9211 -95.4578 286° West 177 204 6,500  Level Fort Worth Center
10:04PM 32.9356 -95.5150 287° West 182 209 6,500  Level Fort Worth Center
10:05PM 32.9481 -95.5719 285° West 179 206 6,500  Level Fort Worth Center
10:06PM 32.9644 -95.6383 286° West 183 211 6,500  Level Fort Worth Center
10:07PM 32.9797 -95.6986 287° West 178 205 6,500  Level Fort Worth Center
10:08PM 32.9911 -95.7558 283° West 178 205 6,500  Level Fort Worth Center
10:09PM 33.0042 -95.8131 285° West 179 206 6,500  Level Fort Worth Center
10:10PM 33.0172 -95.8706 285° West 180 207 6,500  Level Fort Worth Center
10:11PM 33.0314 -95.9317 285° West 179 206 6,500  Level Fort Worth Center
10:13PM 33.0444 -95.9894 285° West 181 208 6,500  Level Fort Worth Center
10:14PM 33.0567 -96.0464 284° West 179 206 6,500 -120 Level Fort Worth Center
10:15PM 33.0711 -96.1089 285° West 181 208 6,300 -360 Descending Fort Worth Center
10:16PM 33.0842 -96.1692 285° West 188 216 5,800 -540 Descending Fort Worth Center
10:17PM 33.0972 -96.2292 285° West 189 217 5,200 -600 Descending Fort Worth Center
10:18PM 33.1103 -96.2864 285° West 182 209 4,600 -600 Descending Fort Worth Center
10:19PM 33.1325 -96.3447 294° West 180 207 4,000 -600 Descending Fort Worth Center
10:20PM 33.1528 -96.3992 294° West 180 207 3,400 -660 Descending Fort Worth Center
10:21PM 33.1678 -96.4581 287° West 185 213 2,700 -720 Descending Fort Worth Center
10:22PM 33.1839 -96.5164 288° West 172 198 2,000 -600 Descending Fort Worth Center
10:23PM 33.2000 -96.5600 294° West 145 167 1,500 -600 Descending Fort Worth Center
10:24PM 33.1986 -96.5869 266° West 105 121 900 -420 Descending Fort Worth Center
10:25PM 33.1786 -96.5889 185° South 88 101 700 -240 Descending Fort Worth Center
10:27PM 33.1771 -96.5888 North  Level Estimated